sensor_id;sensor_type;location;lat;lon;timestamp;P1;durP1;ratioP1;P2;durP2;ratioP2
840;SDS011;406;48.566;13.450;2024-03-02T00:00:08;51.07;;;25.90;;
840;SDS011;406;48.566;13.450;2024-03-02T00:02:44;46.13;;;24.27;;
840;SDS011;406;48.566;13.450;2024-03-02T00:05:11;41.53;;;25.80;;
840;SDS011;406;48.566;13.450;2024-03-02T00:07:42;49.33;;;25.40;;
840;SDS011;406;48.566;13.450;2024-03-02T00:10:10;48.80;;;26.33;;
840;SDS011;406;48.566;13.450;2024-03-02T00:12:38;53.43;;;27.37;;
840;SDS011;406;48.566;13.450;2024-03-02T00:18:10;51.80;;;25.47;;
840;SDS011;406;48.566;13.450;2024-03-02T00:20:38;51.80;;;25.90;;
840;SDS011;406;48.566;13.450;2024-03-02T00:23:06;56.43;;;28.23;;
840;SDS011;406;48.566;13.450;2024-03-02T00:25:37;50.27;;;26.47;;
840;SDS011;406;48.566;13.450;2024-03-02T00:28:10;56.70;;;28.07;;
840;SDS011;406;48.566;13.450;2024-03-02T00:34:04;56.47;;;28.30;;
840;SDS011;406;48.566;13.450;2024-03-02T00:36:26;57.97;;;29.63;;
840;SDS011;406;48.566;13.450;2024-03-02T00:38:53;53.17;;;26.73;;
840;SDS011;406;48.566;13.450;2024-03-02T00:41:27;55.80;;;28.77;;
840;SDS011;406;48.566;13.450;2024-03-02T00:43:58;50.57;;;26.07;;
840;SDS011;406;48.566;13.450;2024-03-02T00:46:30;45.13;;;26.03;;
840;SDS011;406;48.566;13.450;2024-03-02T00:49:00;54.17;;;26.73;;
840;SDS011;406;48.566;13.450;2024-03-02T00:51:29;48.80;;;27.80;;
840;SDS011;406;48.566;13.450;2024-03-02T00:54:00;49.33;;;27.33;;
840;SDS011;406;48.566;13.450;2024-03-02T00:56:31;51.30;;;25.50;;
840;SDS011;406;48.566;13.450;2024-03-02T00:58:57;56.53;;;27.33;;
840;SDS011;406;48.566;13.450;2024-03-02T01:04:12;42.03;;;24.07;;
840;SDS011;406;48.566;13.450;2024-03-02T01:06:40;59.63;;;29.77;;
840;SDS011;406;48.566;13.450;2024-03-02T01:09:08;48.67;;;26.13;;
840;SDS011;406;48.566;13.450;2024-03-02T01:11:34;47.17;;;24.90;;
840;SDS011;406;48.566;13.450;2024-03-02T01:14:01;51.77;;;26.83;;
840;SDS011;406;48.566;13.450;2024-03-02T01:16:27;51.93;;;27.60;;
840;SDS011;406;48.566;13.450;2024-03-02T01:18:54;52.80;;;26.50;;
840;SDS011;406;48.566;13.450;2024-03-02T01:21:20;51.20;;;27.20;;
840;SDS011;406;48.566;13.450;2024-03-02T01:23:47;54.23;;;29.50;;
840;SDS011;406;48.566;13.450;2024-03-02T01:26:14;56.57;;;27.20;;
840;SDS011;406;48.566;13.450;2024-03-02T01:28:40;45.77;;;25.93;;
840;SDS011;406;48.566;13.450;2024-03-02T01:31:07;52.07;;;25.90;;
840;SDS011;406;48.566;13.450;2024-03-02T01:33:33;50.67;;;24.67;;
840;SDS011;406;48.566;13.450;2024-03-02T01:36:00;47.93;;;26.40;;
840;SDS011;406;48.566;13.450;2024-03-02T01:38:26;60.17;;;26.43;;
840;SDS011;406;48.566;13.450;2024-03-02T01:40:54;56.70;;;27.10;;
840;SDS011;406;48.566;13.450;2024-03-02T01:43:22;50.53;;;25.90;;
840;SDS011;406;48.566;13.450;2024-03-02T01:45:49;49.87;;;25.77;;
840;SDS011;406;48.566;13.450;2024-03-02T01:48:16;45.60;;;26.00;;
840;SDS011;406;48.566;13.450;2024-03-02T01:50:42;51.50;;;24.90;;
840;SDS011;406;48.566;13.450;2024-03-02T01:53:09;53.63;;;25.27;;
840;SDS011;406;48.566;13.450;2024-03-02T01:55:36;43.27;;;23.33;;
840;SDS011;406;48.566;13.450;2024-03-02T01:58:02;51.07;;;26.80;;
840;SDS011;406;48.566;13.450;2024-03-02T02:00:29;39.37;;;22.17;;
840;SDS011;406;48.566;13.450;2024-03-02T02:02:56;50.23;;;25.30;;
840;SDS011;406;48.566;13.450;2024-03-02T02:05:24;48.30;;;24.27;;
840;SDS011;406;48.566;13.450;2024-03-02T02:07:50;49.33;;;24.00;;
840;SDS011;406;48.566;13.450;2024-03-02T02:10:17;40.90;;;23.67;;
840;SDS011;406;48.566;13.450;2024-03-02T02:12:44;44.40;;;23.77;;
840;SDS011;406;48.566;13.450;2024-03-02T02:15:26;45.00;;;21.33;;
840;SDS011;406;48.566;13.450;2024-03-02T02:17:54;44.10;;;21.13;;
840;SDS011;406;48.566;13.450;2024-03-02T02:20:22;55.07;;;23.17;;
840;SDS011;406;48.566;13.450;2024-03-02T02:22:55;46.13;;;23.53;;
840;SDS011;406;48.566;13.450;2024-03-02T02:25:28;53.23;;;25.17;;
840;SDS011;406;48.566;13.450;2024-03-02T02:27:56;49.70;;;23.27;;
840;SDS011;406;48.566;13.450;2024-03-02T02:30:24;47.40;;;23.33;;
840;SDS011;406;48.566;13.450;2024-03-02T02:32:55;43.43;;;22.63;;
840;SDS011;406;48.566;13.450;2024-03-02T02:35:22;47.60;;;25.13;;
840;SDS011;406;48.566;13.450;2024-03-02T02:37:50;47.23;;;23.90;;
840;SDS011;406;48.566;13.450;2024-03-02T02:40:18;86.60;;;28.90;;
840;SDS011;406;48.566;13.450;2024-03-02T02:42:45;87.30;;;28.27;;
840;SDS011;406;48.566;13.450;2024-03-02T02:45:12;50.80;;;23.93;;
840;SDS011;406;48.566;13.450;2024-03-02T02:47:41;40.70;;;21.47;;
840;SDS011;406;48.566;13.450;2024-03-02T02:50:08;63.80;;;25.63;;
840;SDS011;406;48.566;13.450;2024-03-02T02:52:36;48.20;;;23.60;;
840;SDS011;406;48.566;13.450;2024-03-02T02:55:06;46.13;;;21.87;;
840;SDS011;406;48.566;13.450;2024-03-02T02:57:34;44.53;;;22.87;;
840;SDS011;406;48.566;13.450;2024-03-02T03:00:09;46.83;;;21.77;;
840;SDS011;406;48.566;13.450;2024-03-02T03:02:42;38.20;;;19.57;;
840;SDS011;406;48.566;13.450;2024-03-02T03:05:10;56.50;;;22.50;;
840;SDS011;406;48.566;13.450;2024-03-02T03:07:39;81.63;;;26.17;;
840;SDS011;406;48.566;13.450;2024-03-02T03:10:06;40.63;;;21.30;;
840;SDS011;406;48.566;13.450;2024-03-02T03:12:34;41.70;;;23.80;;
840;SDS011;406;48.566;13.450;2024-03-02T03:15:01;43.37;;;23.23;;
840;SDS011;406;48.566;13.450;2024-03-02T03:17:28;44.50;;;21.10;;
840;SDS011;406;48.566;13.450;2024-03-02T03:19:55;44.57;;;23.90;;
840;SDS011;406;48.566;13.450;2024-03-02T03:22:21;56.40;;;24.93;;
840;SDS011;406;48.566;13.450;2024-03-02T03:24:48;46.33;;;22.90;;
840;SDS011;406;48.566;13.450;2024-03-02T03:27:14;47.97;;;23.43;;
840;SDS011;406;48.566;13.450;2024-03-02T03:29:41;65.83;;;23.03;;
840;SDS011;406;48.566;13.450;2024-03-02T03:32:08;72.33;;;24.73;;
840;SDS011;406;48.566;13.450;2024-03-02T03:34:34;57.63;;;21.50;;
840;SDS011;406;48.566;13.450;2024-03-02T03:37:01;58.70;;;22.50;;
840;SDS011;406;48.566;13.450;2024-03-02T03:39:28;42.73;;;22.87;;
840;SDS011;406;48.566;13.450;2024-03-02T03:41:55;41.20;;;20.10;;
840;SDS011;406;48.566;13.450;2024-03-02T03:44:22;57.60;;;25.37;;
840;SDS011;406;48.566;13.450;2024-03-02T03:46:48;64.37;;;24.73;;
840;SDS011;406;48.566;13.450;2024-03-02T03:49:15;41.33;;;20.37;;
840;SDS011;406;48.566;13.450;2024-03-02T03:51:41;42.50;;;20.53;;
840;SDS011;406;48.566;13.450;2024-03-02T03:54:08;36.23;;;18.70;;
840;SDS011;406;48.566;13.450;2024-03-02T03:56:37;33.60;;;17.83;;
840;SDS011;406;48.566;13.450;2024-03-02T03:59:04;40.13;;;21.20;;
840;SDS011;406;48.566;13.450;2024-03-02T04:01:31;63.73;;;22.67;;
840;SDS011;406;48.566;13.450;2024-03-02T04:04:00;74.20;;;23.30;;
840;SDS011;406;48.566;13.450;2024-03-02T04:06:29;39.67;;;17.90;;
840;SDS011;406;48.566;13.450;2024-03-02T04:08:56;71.27;;;19.80;;
840;SDS011;406;48.566;13.450;2024-03-02T04:11:22;49.37;;;19.93;;
840;SDS011;406;48.566;13.450;2024-03-02T04:13:49;42.57;;;16.60;;
840;SDS011;406;48.566;13.450;2024-03-02T04:16:16;36.33;;;17.10;;
840;SDS011;406;48.566;13.450;2024-03-02T04:18:42;55.47;;;16.47;;
840;SDS011;406;48.566;13.450;2024-03-02T04:21:09;31.43;;;18.13;;
840;SDS011;406;48.566;13.450;2024-03-02T04:23:35;25.60;;;15.00;;
840;SDS011;406;48.566;13.450;2024-03-02T04:26:02;28.33;;;17.13;;
840;SDS011;406;48.566;13.450;2024-03-02T04:28:28;29.97;;;16.07;;
840;SDS011;406;48.566;13.450;2024-03-02T04:30:55;22.07;;;15.20;;
840;SDS011;406;48.566;13.450;2024-03-02T04:33:21;24.37;;;13.60;;
840;SDS011;406;48.566;13.450;2024-03-02T04:35:48;22.10;;;13.83;;
840;SDS011;406;48.566;13.450;2024-03-02T04:38:15;20.27;;;13.03;;
840;SDS011;406;48.566;13.450;2024-03-02T04:40:41;20.60;;;14.00;;
840;SDS011;406;48.566;13.450;2024-03-02T04:43:08;18.27;;;13.37;;
840;SDS011;406;48.566;13.450;2024-03-02T04:45:38;23.53;;;14.53;;
840;SDS011;406;48.566;13.450;2024-03-02T04:48:05;22.27;;;14.27;;
840;SDS011;406;48.566;13.450;2024-03-02T04:50:32;21.63;;;14.03;;
840;SDS011;406;48.566;13.450;2024-03-02T04:52:59;21.10;;;12.70;;
840;SDS011;406;48.566;13.450;2024-03-02T04:55:25;20.53;;;13.97;;
840;SDS011;406;48.566;13.450;2024-03-02T04:57:55;26.87;;;14.13;;
840;SDS011;406;48.566;13.450;2024-03-02T05:00:22;22.50;;;14.57;;
840;SDS011;406;48.566;13.450;2024-03-02T05:02:49;24.47;;;14.83;;
840;SDS011;406;48.566;13.450;2024-03-02T05:05:16;27.50;;;14.67;;
840;SDS011;406;48.566;13.450;2024-03-02T05:07:43;23.17;;;15.07;;
840;SDS011;406;48.566;13.450;2024-03-02T05:10:10;23.13;;;13.53;;
840;SDS011;406;48.566;13.450;2024-03-02T05:12:41;25.13;;;13.93;;
840;SDS011;406;48.566;13.450;2024-03-02T05:15:11;23.70;;;14.40;;
840;SDS011;406;48.566;13.450;2024-03-02T05:17:39;26.43;;;13.87;;
840;SDS011;406;48.566;13.450;2024-03-02T05:20:06;26.03;;;13.60;;
840;SDS011;406;48.566;13.450;2024-03-02T05:22:36;23.00;;;13.87;;
840;SDS011;406;48.566;13.450;2024-03-02T05:25:03;20.47;;;12.37;;
840;SDS011;406;48.566;13.450;2024-03-02T05:27:31;30.70;;;16.50;;
840;SDS011;406;48.566;13.450;2024-03-02T05:29:59;23.53;;;14.43;;
840;SDS011;406;48.566;13.450;2024-03-02T05:32:26;25.30;;;15.27;;
840;SDS011;406;48.566;13.450;2024-03-02T05:34:52;21.10;;;14.03;;
840;SDS011;406;48.566;13.450;2024-03-02T05:37:19;26.17;;;14.57;;
840;SDS011;406;48.566;13.450;2024-03-02T05:39:46;28.33;;;15.67;;
840;SDS011;406;48.566;13.450;2024-03-02T05:42:12;27.87;;;15.60;;
840;SDS011;406;48.566;13.450;2024-03-02T05:44:39;29.30;;;15.57;;
840;SDS011;406;48.566;13.450;2024-03-02T05:47:06;30.67;;;16.50;;
840;SDS011;406;48.566;13.450;2024-03-02T05:49:35;31.47;;;16.83;;
840;SDS011;406;48.566;13.450;2024-03-02T05:52:02;35.93;;;17.80;;
840;SDS011;406;48.566;13.450;2024-03-02T05:54:29;29.07;;;15.67;;
840;SDS011;406;48.566;13.450;2024-03-02T05:56:56;24.37;;;15.63;;
840;SDS011;406;48.566;13.450;2024-03-02T05:59:22;24.00;;;15.23;;
840;SDS011;406;48.566;13.450;2024-03-02T06:01:49;30.70;;;16.00;;
840;SDS011;406;48.566;13.450;2024-03-02T06:04:18;31.30;;;16.17;;
840;SDS011;406;48.566;13.450;2024-03-02T06:06:45;26.17;;;15.53;;
840;SDS011;406;48.566;13.450;2024-03-02T06:09:12;30.00;;;17.40;;
840;SDS011;406;48.566;13.450;2024-03-02T06:11:39;26.00;;;15.00;;
840;SDS011;406;48.566;13.450;2024-03-02T06:14:07;25.50;;;15.90;;
840;SDS011;406;48.566;13.450;2024-03-02T06:16:34;30.67;;;15.87;;
840;SDS011;406;48.566;13.450;2024-03-02T06:19:01;29.30;;;16.90;;
840;SDS011;406;48.566;13.450;2024-03-02T06:21:29;27.33;;;15.90;;
840;SDS011;406;48.566;13.450;2024-03-02T06:23:56;27.27;;;15.50;;
840;SDS011;406;48.566;13.450;2024-03-02T06:26:23;26.20;;;15.20;;
840;SDS011;406;48.566;13.450;2024-03-02T06:28:51;31.03;;;16.27;;
840;SDS011;406;48.566;13.450;2024-03-02T06:31:18;25.10;;;15.60;;
840;SDS011;406;48.566;13.450;2024-03-02T06:33:45;26.80;;;15.87;;
840;SDS011;406;48.566;13.450;2024-03-02T06:36:11;22.17;;;14.43;;
840;SDS011;406;48.566;13.450;2024-03-02T06:38:38;26.27;;;16.00;;
840;SDS011;406;48.566;13.450;2024-03-02T06:41:08;27.60;;;16.73;;
840;SDS011;406;48.566;13.450;2024-03-02T06:43:35;25.33;;;16.03;;
840;SDS011;406;48.566;13.450;2024-03-02T06:46:02;29.83;;;15.93;;
840;SDS011;406;48.566;13.450;2024-03-02T06:48:28;25.33;;;15.13;;
840;SDS011;406;48.566;13.450;2024-03-02T06:50:56;25.90;;;16.00;;
840;SDS011;406;48.566;13.450;2024-03-02T06:53:24;29.07;;;14.87;;
840;SDS011;406;48.566;13.450;2024-03-02T06:55:51;25.30;;;15.67;;
840;SDS011;406;48.566;13.450;2024-03-02T06:58:18;30.90;;;17.03;;
840;SDS011;406;48.566;13.450;2024-03-02T07:00:44;33.97;;;18.43;;
840;SDS011;406;48.566;13.450;2024-03-02T07:03:11;26.87;;;15.83;;
840;SDS011;406;48.566;13.450;2024-03-02T07:05:38;31.53;;;17.20;;
840;SDS011;406;48.566;13.450;2024-03-02T07:08:05;30.23;;;18.87;;
840;SDS011;406;48.566;13.450;2024-03-02T07:10:32;31.90;;;16.70;;
840;SDS011;406;48.566;13.450;2024-03-02T07:12:58;28.00;;;17.03;;
840;SDS011;406;48.566;13.450;2024-03-02T07:15:26;29.90;;;18.23;;
840;SDS011;406;48.566;13.450;2024-03-02T07:18:31;25.33;;;16.10;;
840;SDS011;406;48.566;13.450;2024-03-02T07:20:57;28.10;;;17.17;;
840;SDS011;406;48.566;13.450;2024-03-02T07:23:25;34.47;;;18.17;;
840;SDS011;406;48.566;13.450;2024-03-02T07:25:53;33.37;;;19.97;;
840;SDS011;406;48.566;13.450;2024-03-02T07:28:26;32.83;;;18.60;;
840;SDS011;406;48.566;13.450;2024-03-02T07:31:02;32.93;;;18.07;;
840;SDS011;406;48.566;13.450;2024-03-02T07:33:30;28.80;;;17.43;;
840;SDS011;406;48.566;13.450;2024-03-02T07:35:57;28.30;;;17.47;;
840;SDS011;406;48.566;13.450;2024-03-02T07:38:29;38.53;;;18.50;;
840;SDS011;406;48.566;13.450;2024-03-02T07:40:56;25.17;;;16.90;;
840;SDS011;406;48.566;13.450;2024-03-02T07:43:23;29.10;;;17.33;;
840;SDS011;406;48.566;13.450;2024-03-02T07:45:50;32.73;;;17.63;;
840;SDS011;406;48.566;13.450;2024-03-02T07:48:17;29.63;;;17.07;;
840;SDS011;406;48.566;13.450;2024-03-02T07:50:43;26.13;;;15.30;;
840;SDS011;406;48.566;13.450;2024-03-02T07:53:10;26.17;;;17.33;;
840;SDS011;406;48.566;13.450;2024-03-02T07:55:36;24.70;;;16.60;;
840;SDS011;406;48.566;13.450;2024-03-02T07:58:03;22.80;;;14.97;;
840;SDS011;406;48.566;13.450;2024-03-02T08:00:30;27.17;;;15.57;;
840;SDS011;406;48.566;13.450;2024-03-02T08:02:57;27.00;;;16.07;;
840;SDS011;406;48.566;13.450;2024-03-02T08:05:23;27.57;;;15.47;;
840;SDS011;406;48.566;13.450;2024-03-02T08:07:50;25.63;;;17.00;;
840;SDS011;406;48.566;13.450;2024-03-02T08:10:19;27.53;;;15.80;;
840;SDS011;406;48.566;13.450;2024-03-02T08:12:45;20.87;;;14.60;;
840;SDS011;406;48.566;13.450;2024-03-02T08:15:12;25.60;;;15.30;;
840;SDS011;406;48.566;13.450;2024-03-02T08:17:41;25.23;;;16.47;;
840;SDS011;406;48.566;13.450;2024-03-02T08:20:15;24.33;;;15.37;;
840;SDS011;406;48.566;13.450;2024-03-02T08:22:41;28.97;;;16.00;;
840;SDS011;406;48.566;13.450;2024-03-02T08:25:08;28.23;;;16.73;;
840;SDS011;406;48.566;13.450;2024-03-02T08:27:36;27.00;;;15.10;;
840;SDS011;406;48.566;13.450;2024-03-02T08:30:02;26.23;;;15.13;;
840;SDS011;406;48.566;13.450;2024-03-02T08:32:33;22.00;;;14.70;;
840;SDS011;406;48.566;13.450;2024-03-02T08:34:59;24.73;;;14.80;;
840;SDS011;406;48.566;13.450;2024-03-02T08:37:26;29.70;;;17.50;;
840;SDS011;406;48.566;13.450;2024-03-02T08:39:53;22.13;;;14.57;;
840;SDS011;406;48.566;13.450;2024-03-02T08:42:19;24.13;;;15.90;;
840;SDS011;406;48.566;13.450;2024-03-02T08:44:46;26.57;;;15.90;;
840;SDS011;406;48.566;13.450;2024-03-02T08:47:12;24.60;;;14.47;;
840;SDS011;406;48.566;13.450;2024-03-02T08:49:39;23.53;;;15.03;;
840;SDS011;406;48.566;13.450;2024-03-02T08:52:06;23.93;;;16.23;;
840;SDS011;406;48.566;13.450;2024-03-02T08:54:32;25.73;;;15.90;;
840;SDS011;406;48.566;13.450;2024-03-02T08:57:00;21.70;;;14.77;;
840;SDS011;406;48.566;13.450;2024-03-02T08:59:27;22.90;;;15.63;;
840;SDS011;406;48.566;13.450;2024-03-02T09:01:54;24.50;;;15.63;;
840;SDS011;406;48.566;13.450;2024-03-02T09:04:20;24.80;;;16.03;;
840;SDS011;406;48.566;13.450;2024-03-02T09:06:52;21.50;;;13.50;;
840;SDS011;406;48.566;13.450;2024-03-02T09:09:18;23.27;;;14.80;;
840;SDS011;406;48.566;13.450;2024-03-02T09:11:45;25.07;;;15.13;;
840;SDS011;406;48.566;13.450;2024-03-02T09:14:12;22.20;;;15.03;;
840;SDS011;406;48.566;13.450;2024-03-02T09:16:41;22.87;;;15.30;;
840;SDS011;406;48.566;13.450;2024-03-02T09:19:07;28.57;;;16.23;;
840;SDS011;406;48.566;13.450;2024-03-02T09:21:34;26.00;;;15.07;;
840;SDS011;406;48.566;13.450;2024-03-02T09:24:01;22.10;;;15.00;;
840;SDS011;406;48.566;13.450;2024-03-02T09:26:28;27.67;;;16.90;;
840;SDS011;406;48.566;13.450;2024-03-02T09:28:55;24.37;;;15.17;;
840;SDS011;406;48.566;13.450;2024-03-02T09:31:22;24.30;;;16.10;;
840;SDS011;406;48.566;13.450;2024-03-02T09:33:48;22.73;;;14.97;;
840;SDS011;406;48.566;13.450;2024-03-02T09:36:18;28.60;;;15.80;;
840;SDS011;406;48.566;13.450;2024-03-02T09:38:48;26.63;;;16.00;;
840;SDS011;406;48.566;13.450;2024-03-02T09:41:15;23.10;;;15.53;;
840;SDS011;406;48.566;13.450;2024-03-02T09:43:42;21.57;;;15.17;;
840;SDS011;406;48.566;13.450;2024-03-02T09:46:09;24.30;;;15.17;;
840;SDS011;406;48.566;13.450;2024-03-02T09:48:36;23.60;;;15.30;;
840;SDS011;406;48.566;13.450;2024-03-02T09:51:03;28.50;;;16.80;;
840;SDS011;406;48.566;13.450;2024-03-02T09:53:31;26.23;;;16.03;;
840;SDS011;406;48.566;13.450;2024-03-02T09:56:01;26.23;;;15.77;;
840;SDS011;406;48.566;13.450;2024-03-02T09:58:28;31.43;;;15.97;;
840;SDS011;406;48.566;13.450;2024-03-02T10:00:54;20.73;;;15.50;;
840;SDS011;406;48.566;13.450;2024-03-02T10:03:22;24.37;;;15.70;;
840;SDS011;406;48.566;13.450;2024-03-02T10:05:50;24.60;;;15.27;;
840;SDS011;406;48.566;13.450;2024-03-02T10:08:18;28.03;;;17.77;;
840;SDS011;406;48.566;13.450;2024-03-02T10:10:44;28.30;;;17.60;;
840;SDS011;406;48.566;13.450;2024-03-02T10:13:12;25.43;;;17.53;;
840;SDS011;406;48.566;13.450;2024-03-02T10:15:40;27.43;;;15.77;;
840;SDS011;406;48.566;13.450;2024-03-02T10:18:10;26.93;;;16.50;;
840;SDS011;406;48.566;13.450;2024-03-02T10:20:42;24.60;;;14.93;;
840;SDS011;406;48.566;13.450;2024-03-02T10:23:12;27.33;;;18.33;;
840;SDS011;406;48.566;13.450;2024-03-02T10:25:39;24.07;;;16.60;;
840;SDS011;406;48.566;13.450;2024-03-02T10:28:20;27.90;;;16.57;;
840;SDS011;406;48.566;13.450;2024-03-02T10:30:47;26.87;;;16.80;;
840;SDS011;406;48.566;13.450;2024-03-02T10:33:14;28.43;;;16.47;;
840;SDS011;406;48.566;13.450;2024-03-02T10:35:41;22.43;;;14.80;;
840;SDS011;406;48.566;13.450;2024-03-02T10:38:07;25.17;;;17.20;;
840;SDS011;406;48.566;13.450;2024-03-02T10:40:34;26.30;;;17.30;;
840;SDS011;406;48.566;13.450;2024-03-02T10:43:01;26.60;;;17.00;;
840;SDS011;406;48.566;13.450;2024-03-02T10:45:31;27.97;;;18.47;;
840;SDS011;406;48.566;13.450;2024-03-02T10:47:57;29.90;;;18.63;;
840;SDS011;406;48.566;13.450;2024-03-02T10:50:24;25.80;;;18.53;;
840;SDS011;406;48.566;13.450;2024-03-02T10:52:51;27.27;;;18.13;;
840;SDS011;406;48.566;13.450;2024-03-02T10:55:17;28.57;;;18.30;;
840;SDS011;406;48.566;13.450;2024-03-02T10:57:50;28.90;;;18.83;;
840;SDS011;406;48.566;13.450;2024-03-02T11:00:18;29.50;;;19.00;;
840;SDS011;406;48.566;13.450;2024-03-02T11:02:46;27.80;;;19.30;;
840;SDS011;406;48.566;13.450;2024-03-02T11:05:21;23.90;;;17.03;;
840;SDS011;406;48.566;13.450;2024-03-02T11:07:53;31.07;;;18.37;;
840;SDS011;406;48.566;13.450;2024-03-02T11:10:25;24.77;;;17.57;;
840;SDS011;406;48.566;13.450;2024-03-02T11:12:56;27.67;;;18.50;;
840;SDS011;406;48.566;13.450;2024-03-02T11:15:28;26.50;;;19.50;;
840;SDS011;406;48.566;13.450;2024-03-02T11:17:55;29.60;;;20.00;;
840;SDS011;406;48.566;13.450;2024-03-02T11:20:23;28.60;;;18.10;;
840;SDS011;406;48.566;13.450;2024-03-02T11:22:50;24.63;;;17.60;;
840;SDS011;406;48.566;13.450;2024-03-02T11:25:27;28.37;;;19.03;;
840;SDS011;406;48.566;13.450;2024-03-02T11:33:00;28.80;;;20.90;;
840;SDS011;406;48.566;13.450;2024-03-02T11:35:33;27.30;;;18.33;;
840;SDS011;406;48.566;13.450;2024-03-02T11:38:03;28.07;;;18.97;;
840;SDS011;406;48.566;13.450;2024-03-02T11:40:30;29.03;;;17.77;;
840;SDS011;406;48.566;13.450;2024-03-02T11:42:57;27.77;;;18.80;;
840;SDS011;406;48.566;13.450;2024-03-02T11:45:25;28.47;;;18.80;;
840;SDS011;406;48.566;13.450;2024-03-02T11:47:56;22.70;;;17.43;;
840;SDS011;406;48.566;13.450;2024-03-02T11:50:57;24.63;;;17.33;;
840;SDS011;406;48.566;13.450;2024-03-02T11:53:17;22.93;;;17.93;;
840;SDS011;406;48.566;13.450;2024-03-02T11:55:44;26.53;;;18.63;;
840;SDS011;406;48.566;13.450;2024-03-02T11:58:15;29.70;;;19.17;;
840;SDS011;406;48.566;13.450;2024-03-02T12:00:46;24.90;;;17.27;;
840;SDS011;406;48.566;13.450;2024-03-02T12:03:13;27.40;;;19.30;;
840;SDS011;406;48.566;13.450;2024-03-02T12:05:41;26.40;;;17.60;;
840;SDS011;406;48.566;13.450;2024-03-02T12:08:08;23.17;;;16.40;;
840;SDS011;406;48.566;13.450;2024-03-02T12:10:35;24.97;;;17.87;;
840;SDS011;406;48.566;13.450;2024-03-02T12:13:03;27.87;;;18.57;;
840;SDS011;406;48.566;13.450;2024-03-02T12:15:32;23.37;;;17.27;;
840;SDS011;406;48.566;13.450;2024-03-02T12:18:00;20.33;;;16.20;;
840;SDS011;406;48.566;13.450;2024-03-02T12:20:28;24.00;;;17.30;;
840;SDS011;406;48.566;13.450;2024-03-02T12:22:57;25.33;;;17.90;;
840;SDS011;406;48.566;13.450;2024-03-02T12:25:25;24.50;;;16.70;;
840;SDS011;406;48.566;13.450;2024-03-02T12:27:53;23.27;;;17.17;;
840;SDS011;406;48.566;13.450;2024-03-02T12:30:21;23.40;;;17.53;;
840;SDS011;406;48.566;13.450;2024-03-02T12:32:48;22.83;;;17.03;;
840;SDS011;406;48.566;13.450;2024-03-02T12:35:15;24.17;;;17.73;;
840;SDS011;406;48.566;13.450;2024-03-02T12:40:13;29.57;;;18.70;;
840;SDS011;406;48.566;13.450;2024-03-02T12:42:41;22.70;;;16.60;;
840;SDS011;406;48.566;13.450;2024-03-02T12:45:08;24.30;;;17.03;;
840;SDS011;406;48.566;13.450;2024-03-02T12:47:35;23.17;;;17.60;;
840;SDS011;406;48.566;13.450;2024-03-02T12:50:03;25.07;;;17.87;;
840;SDS011;406;48.566;13.450;2024-03-02T12:52:30;22.37;;;15.20;;
840;SDS011;406;48.566;13.450;2024-03-02T12:55:01;22.83;;;17.10;;
840;SDS011;406;48.566;13.450;2024-03-02T12:57:33;24.53;;;16.23;;
840;SDS011;406;48.566;13.450;2024-03-02T13:00:04;22.30;;;16.33;;
840;SDS011;406;48.566;13.450;2024-03-02T13:02:36;24.83;;;16.53;;
840;SDS011;406;48.566;13.450;2024-03-02T13:05:03;24.30;;;16.63;;
840;SDS011;406;48.566;13.450;2024-03-02T13:07:29;21.27;;;15.57;;
840;SDS011;406;48.566;13.450;2024-03-02T13:09:56;17.83;;;15.93;;
840;SDS011;406;48.566;13.450;2024-03-02T13:12:26;20.30;;;15.17;;
840;SDS011;406;48.566;13.450;2024-03-02T13:14:53;20.50;;;15.60;;
840;SDS011;406;48.566;13.450;2024-03-02T13:17:19;21.70;;;17.23;;
840;SDS011;406;48.566;13.450;2024-03-02T13:19:53;17.67;;;13.50;;
840;SDS011;406;48.566;13.450;2024-03-02T13:22:21;18.40;;;13.70;;
840;SDS011;406;48.566;13.450;2024-03-02T13:24:48;19.13;;;14.10;;
840;SDS011;406;48.566;13.450;2024-03-02T13:27:15;21.13;;;15.27;;
840;SDS011;406;48.566;13.450;2024-03-02T13:29:42;19.83;;;15.00;;
840;SDS011;406;48.566;13.450;2024-03-02T13:32:09;22.60;;;15.43;;
840;SDS011;406;48.566;13.450;2024-03-02T13:34:38;21.07;;;15.80;;
840;SDS011;406;48.566;13.450;2024-03-02T13:37:05;19.97;;;14.73;;
840;SDS011;406;48.566;13.450;2024-03-02T13:39:32;21.50;;;15.40;;
840;SDS011;406;48.566;13.450;2024-03-02T13:42:01;20.37;;;14.30;;
840;SDS011;406;48.566;13.450;2024-03-02T13:44:33;20.23;;;13.80;;
840;SDS011;406;48.566;13.450;2024-03-02T13:46:59;20.63;;;13.70;;
840;SDS011;406;48.566;13.450;2024-03-02T13:49:26;18.97;;;14.10;;
840;SDS011;406;48.566;13.450;2024-03-02T13:52:05;20.67;;;14.73;;
840;SDS011;406;48.566;13.450;2024-03-02T13:54:37;20.80;;;15.90;;
840;SDS011;406;48.566;13.450;2024-03-02T13:57:05;17.03;;;12.80;;
840;SDS011;406;48.566;13.450;2024-03-02T13:59:33;21.47;;;14.00;;
840;SDS011;406;48.566;13.450;2024-03-02T14:02:01;22.33;;;14.63;;
840;SDS011;406;48.566;13.450;2024-03-02T14:04:28;21.10;;;15.80;;
840;SDS011;406;48.566;13.450;2024-03-02T14:06:54;19.00;;;14.83;;
840;SDS011;406;48.566;13.450;2024-03-02T14:09:22;20.87;;;16.17;;
840;SDS011;406;48.566;13.450;2024-03-02T14:11:53;21.70;;;16.97;;
840;SDS011;406;48.566;13.450;2024-03-02T14:14:20;23.87;;;17.10;;
840;SDS011;406;48.566;13.450;2024-03-02T14:16:46;23.93;;;17.20;;
840;SDS011;406;48.566;13.450;2024-03-02T14:19:13;25.07;;;18.27;;
840;SDS011;406;48.566;13.450;2024-03-02T14:21:40;30.47;;;21.40;;
840;SDS011;406;48.566;13.450;2024-03-02T14:24:06;27.33;;;20.73;;
840;SDS011;406;48.566;13.450;2024-03-02T14:26:33;27.20;;;19.50;;
840;SDS011;406;48.566;13.450;2024-03-02T14:29:00;26.97;;;19.17;;
840;SDS011;406;48.566;13.450;2024-03-02T14:31:30;26.60;;;20.07;;
840;SDS011;406;48.566;13.450;2024-03-02T14:34:00;32.30;;;21.70;;
840;SDS011;406;48.566;13.450;2024-03-02T14:36:27;31.90;;;20.97;;
840;SDS011;406;48.566;13.450;2024-03-02T14:38:54;26.80;;;19.60;;
840;SDS011;406;48.566;13.450;2024-03-02T14:41:21;29.83;;;20.07;;
840;SDS011;406;48.566;13.450;2024-03-02T14:43:50;28.87;;;21.77;;
840;SDS011;406;48.566;13.450;2024-03-02T14:46:17;27.77;;;20.30;;
840;SDS011;406;48.566;13.450;2024-03-02T14:48:44;27.03;;;21.90;;
840;SDS011;406;48.566;13.450;2024-03-02T14:51:11;28.93;;;20.93;;
840;SDS011;406;48.566;13.450;2024-03-02T14:53:39;29.33;;;20.97;;
840;SDS011;406;48.566;13.450;2024-03-02T14:56:06;33.73;;;21.73;;
840;SDS011;406;48.566;13.450;2024-03-02T14:58:33;27.47;;;20.20;;
840;SDS011;406;48.566;13.450;2024-03-02T15:01:01;26.43;;;20.27;;
840;SDS011;406;48.566;13.450;2024-03-02T15:03:28;24.30;;;18.77;;
840;SDS011;406;48.566;13.450;2024-03-02T15:05:54;27.67;;;21.23;;
840;SDS011;406;48.566;13.450;2024-03-02T15:08:21;26.83;;;20.10;;
840;SDS011;406;48.566;13.450;2024-03-02T15:10:47;29.40;;;21.43;;
840;SDS011;406;48.566;13.450;2024-03-02T15:13:14;28.33;;;20.00;;
840;SDS011;406;48.566;13.450;2024-03-02T15:15:41;27.43;;;20.87;;
840;SDS011;406;48.566;13.450;2024-03-02T15:18:07;27.77;;;22.00;;
840;SDS011;406;48.566;13.450;2024-03-02T15:20:35;28.30;;;20.83;;